sensor_id;sensor_type;location;lat;lon;timestamp;temperature;humidity
55828;DHT22;41758;51.992;5.890;2022-12-11T00:00:46;10.00;69.20
55828;DHT22;41758;51.992;5.890;2022-12-11T00:03:12;10.00;69.50
55828;DHT22;41758;51.992;5.890;2022-12-11T00:05:38;10.10;69.00
55828;DHT22;41758;51.992;5.890;2022-12-11T00:08:04;10.20;69.00
55828;DHT22;41758;51.992;5.890;2022-12-11T00:10:30;10.10;68.80
55828;DHT22;41758;51.992;5.890;2022-12-11T00:12:55;10.10;68.20
55828;DHT22;41758;51.992;5.890;2022-12-11T00:15:21;10.10;68.10
55828;DHT22;41758;51.992;5.890;2022-12-11T00:17:46;10.10;67.90
55828;DHT22;41758;51.992;5.890;2022-12-11T00:20:12;10.10;68.50
55828;DHT22;41758;51.992;5.890;2022-12-11T00:22:37;10.10;69.40
55828;DHT22;41758;51.992;5.890;2022-12-11T00:25:03;10.10;69.20
55828;DHT22;41758;51.992;5.890;2022-12-11T00:27:29;10.10;69.40
55828;DHT22;41758;51.992;5.890;2022-12-11T00:29:55;10.10;69.70
55828;DHT22;41758;51.992;5.890;2022-12-11T00:35:49;10.10;69.90
55828;DHT22;41758;51.992;5.890;2022-12-11T00:38:15;10.10;70.10
55828;DHT22;41758;51.992;5.890;2022-12-11T00:40:41;10.10;70.30
55828;DHT22;41758;51.992;5.890;2022-12-11T00:43:07;10.10;70.50
55828;DHT22;41758;51.992;5.890;2022-12-11T00:45:36;10.20;69.90
55828;DHT22;41758;51.992;5.890;2022-12-11T00:48:02;10.20;69.70
55828;DHT22;41758;51.992;5.890;2022-12-11T00:50:28;10.10;69.70
55828;DHT22;41758;51.992;5.890;2022-12-11T00:52:54;10.20;69.50
55828;DHT22;41758;51.992;5.890;2022-12-11T00:55:19;10.30;69.80
55828;DHT22;41758;51.992;5.890;2022-12-11T00:57:45;10.20;70.00
55828;DHT22;41758;51.992;5.890;2022-12-11T01:00:11;10.20;70.20
55828;DHT22;41758;51.992;5.890;2022-12-11T01:02:37;10.10;70.10
55828;DHT22;41758;51.992;5.890;2022-12-11T01:05:03;10.10;70.10
55828;DHT22;41758;51.992;5.890;2022-12-11T01:07:29;10.10;70.30
55828;DHT22;41758;51.992;5.890;2022-12-11T01:09:54;10.20;70.60
55828;DHT22;41758;51.992;5.890;2022-12-11T01:12:39;10.30;70.80
55828;DHT22;41758;51.992;5.890;2022-12-11T01:15:04;10.40;70.70
55828;DHT22;41758;51.992;5.890;2022-12-11T01:17:30;10.50;70.30
55828;DHT22;41758;51.992;5.890;2022-12-11T01:19:56;10.40;69.70
55828;DHT22;41758;51.992;5.890;2022-12-11T01:22:21;10.40;69.50
55828;DHT22;41758;51.992;5.890;2022-12-11T01:24:47;10.30;69.50
55828;DHT22;41758;51.992;5.890;2022-12-11T01:27:13;10.30;69.70
55828;DHT22;41758;51.992;5.890;2022-12-11T01:29:39;10.30;69.90
55828;DHT22;41758;51.992;5.890;2022-12-11T01:32:04;10.30;70.10
55828;DHT22;41758;51.992;5.890;2022-12-11T01:34:30;10.30;69.90
55828;DHT22;41758;51.992;5.890;2022-12-11T01:36:56;10.30;69.80
55828;DHT22;41758;51.992;5.890;2022-12-11T01:39:22;10.30;69.60
55828;DHT22;41758;51.992;5.890;2022-12-11T01:41:47;10.40;69.70
55828;DHT22;41758;51.992;5.890;2022-12-11T01:46:39;10.30;69.90
55828;DHT22;41758;51.992;5.890;2022-12-11T01:49:06;10.30;69.70
55828;DHT22;41758;51.992;5.890;2022-12-11T01:51:32;10.30;69.60
55828;DHT22;41758;51.992;5.890;2022-12-11T01:54:00;10.30;69.30
55828;DHT22;41758;51.992;5.890;2022-12-11T01:56:28;10.30;69.40
55828;DHT22;41758;51.992;5.890;2022-12-11T01:58:56;10.20;69.40
55828;DHT22;41758;51.992;5.890;2022-12-11T02:01:30;10.20;69.20
55828;DHT22;41758;51.992;5.890;2022-12-11T02:03:56;10.10;69.20
55828;DHT22;41758;51.992;5.890;2022-12-11T02:06:30;10.10;69.70
55828;DHT22;41758;51.992;5.890;2022-12-11T02:08:56;10.10;70.00
55828;DHT22;41758;51.992;5.890;2022-12-11T02:11:22;10.10;69.90
55828;DHT22;41758;51.992;5.890;2022-12-11T02:13:55;10.10;69.60
55828;DHT22;41758;51.992;5.890;2022-12-11T02:19:00;10.20;69.20
55828;DHT22;41758;51.992;5.890;2022-12-11T02:21:30;10.30;69.30
55828;DHT22;41758;51.992;5.890;2022-12-11T02:28:49;10.50;70.20
55828;DHT22;41758;51.992;5.890;2022-12-11T02:31:26;10.60;70.70
55828;DHT22;41758;51.992;5.890;2022-12-11T02:33:57;10.70;71.10
55828;DHT22;41758;51.992;5.890;2022-12-11T02:36:24;10.80;70.90
55828;DHT22;41758;51.992;5.890;2022-12-11T02:38:50;11.00;71.30
55828;DHT22;41758;51.992;5.890;2022-12-11T02:41:18;10.90;70.40
55828;DHT22;41758;51.992;5.890;2022-12-11T02:43:44;10.90;69.70
55828;DHT22;41758;51.992;5.890;2022-12-11T02:46:11;10.90;69.70
55828;DHT22;41758;51.992;5.890;2022-12-11T02:48:36;10.80;69.90
55828;DHT22;41758;51.992;5.890;2022-12-11T02:51:04;10.80;69.80
55828;DHT22;41758;51.992;5.890;2022-12-11T02:53:32;10.70;70.00
55828;DHT22;41758;51.992;5.890;2022-12-11T02:56:13;10.70;70.30
55828;DHT22;41758;51.992;5.890;2022-12-11T02:58:48;10.70;70.30
55828;DHT22;41758;51.992;5.890;2022-12-11T03:01:14;10.80;70.40
55828;DHT22;41758;51.992;5.890;2022-12-11T03:03:40;10.70;70.20
55828;DHT22;41758;51.992;5.890;2022-12-11T03:06:05;10.70;69.80
55828;DHT22;41758;51.992;5.890;2022-12-11T03:08:32;10.60;70.00
55828;DHT22;41758;51.992;5.890;2022-12-11T03:11:00;10.60;70.40
55828;DHT22;41758;51.992;5.890;2022-12-11T03:13:25;10.60;70.40
55828;DHT22;41758;51.992;5.890;2022-12-11T03:18:39;10.60;69.70
55828;DHT22;41758;51.992;5.890;2022-12-11T03:21:11;10.60;69.80
55828;DHT22;41758;51.992;5.890;2022-12-11T03:23:42;10.50;70.00
55828;DHT22;41758;51.992;5.890;2022-12-11T03:26:09;10.50;70.20
55828;DHT22;41758;51.992;5.890;2022-12-11T03:33:58;10.50;70.30
55828;DHT22;41758;51.992;5.890;2022-12-11T03:36:27;10.50;70.50
55828;DHT22;41758;51.992;5.890;2022-12-11T03:39:02;10.50;70.80
55828;DHT22;41758;51.992;5.890;2022-12-11T03:41:30;10.60;70.80
55828;DHT22;41758;51.992;5.890;2022-12-11T03:43:57;10.60;70.70
55828;DHT22;41758;51.992;5.890;2022-12-11T03:46:24;10.70;70.90
55828;DHT22;41758;51.992;5.890;2022-12-11T03:48:51;10.60;70.90
55828;DHT22;41758;51.992;5.890;2022-12-11T03:51:18;10.70;70.90
55828;DHT22;41758;51.992;5.890;2022-12-11T03:53:45;10.70;70.90
55828;DHT22;41758;51.992;5.890;2022-12-11T03:56:12;10.70;70.70
55828;DHT22;41758;51.992;5.890;2022-12-11T03:58:38;10.70;70.90
55828;DHT22;41758;51.992;5.890;2022-12-11T04:01:07;10.80;70.80
55828;DHT22;41758;51.992;5.890;2022-12-11T04:03:32;10.70;70.90
55828;DHT22;41758;51.992;5.890;2022-12-11T04:05:58;10.80;71.20
55828;DHT22;41758;51.992;5.890;2022-12-11T04:08:23;10.90;71.00
55828;DHT22;41758;51.992;5.890;2022-12-11T04:10:49;10.90;70.80
55828;DHT22;41758;51.992;5.890;2022-12-11T04:13:35;10.90;70.90
55828;DHT22;41758;51.992;5.890;2022-12-11T04:16:01;10.90;70.90
55828;DHT22;41758;51.992;5.890;2022-12-11T04:18:26;11.00;70.80
55828;DHT22;41758;51.992;5.890;2022-12-11T04:21:11;11.00;70.70
55828;DHT22;41758;51.992;5.890;2022-12-11T04:23:55;10.90;70.70
55828;DHT22;41758;51.992;5.890;2022-12-11T04:26:40;10.90;71.00
55828;DHT22;41758;51.992;5.890;2022-12-11T04:29:05;11.00;71.10
55828;DHT22;41758;51.992;5.890;2022-12-11T04:31:31;11.00;71.20
55828;DHT22;41758;51.992;5.890;2022-12-11T04:33:56;11.10;70.90
55828;DHT22;41758;51.992;5.890;2022-12-11T04:36:22;11.10;71.00
55828;DHT22;41758;51.992;5.890;2022-12-11T04:38:48;11.10;71.10
55828;DHT22;41758;51.992;5.890;2022-12-11T04:41:14;11.20;71.20
55828;DHT22;41758;51.992;5.890;2022-12-11T04:43:40;11.20;71.30
55828;DHT22;41758;51.992;5.890;2022-12-11T04:46:07;11.30;71.40
55828;DHT22;41758;51.992;5.890;2022-12-11T04:48:33;11.20;71.00
55828;DHT22;41758;51.992;5.890;2022-12-11T04:50:58;11.20;71.10
55828;DHT22;41758;51.992;5.890;2022-12-11T04:53:24;11.30;70.90
55828;DHT22;41758;51.992;5.890;2022-12-11T04:55:50;11.30;70.80
55828;DHT22;41758;51.992;5.890;2022-12-11T04:58:16;11.30;71.20
55828;DHT22;41758;51.992;5.890;2022-12-11T05:00:42;11.30;70.70
55828;DHT22;41758;51.992;5.890;2022-12-11T05:03:08;11.30;70.20
55828;DHT22;41758;51.992;5.890;2022-12-11T05:05:33;11.20;70.50
55828;DHT22;41758;51.992;5.890;2022-12-11T05:07:59;11.20;70.50
55828;DHT22;41758;51.992;5.890;2022-12-11T05:10:25;11.20;70.70
55828;DHT22;41758;51.992;5.890;2022-12-11T05:12:50;11.30;70.90
55828;DHT22;41758;51.992;5.890;2022-12-11T05:15:16;11.30;70.90
55828;DHT22;41758;51.992;5.890;2022-12-11T05:17:42;11.30;70.70
55828;DHT22;41758;51.992;5.890;2022-12-11T05:20:07;11.30;71.10
55828;DHT22;41758;51.992;5.890;2022-12-11T05:22:34;11.30;71.00
55828;DHT22;41758;51.992;5.890;2022-12-11T05:24:59;11.30;70.90
55828;DHT22;41758;51.992;5.890;2022-12-11T05:27:25;11.30;70.90
55828;DHT22;41758;51.992;5.890;2022-12-11T05:29:50;11.30;70.60
55828;DHT22;41758;51.992;5.890;2022-12-11T05:32:16;11.30;70.80
55828;DHT22;41758;51.992;5.890;2022-12-11T05:34:42;11.40;71.10
55828;DHT22;41758;51.992;5.890;2022-12-11T05:37:07;11.40;70.90
55828;DHT22;41758;51.992;5.890;2022-12-11T05:39:33;11.40;70.60
55828;DHT22;41758;51.992;5.890;2022-12-11T05:41:58;11.40;70.80
55828;DHT22;41758;51.992;5.890;2022-12-11T05:44:24;11.40;70.50
55828;DHT22;41758;51.992;5.890;2022-12-11T05:46:49;11.40;70.70
55828;DHT22;41758;51.992;5.890;2022-12-11T05:49:15;11.40;70.90
55828;DHT22;41758;51.992;5.890;2022-12-11T05:51:41;11.40;70.60
55828;DHT22;41758;51.992;5.890;2022-12-11T05:54:08;11.30;70.20
55828;DHT22;41758;51.992;5.890;2022-12-11T05:56:34;11.40;70.60
55828;DHT22;41758;51.992;5.890;2022-12-11T05:59:00;11.30;70.30
55828;DHT22;41758;51.992;5.890;2022-12-11T06:03:55;11.30;69.90
55828;DHT22;41758;51.992;5.890;2022-12-11T06:06:21;11.30;70.90
55828;DHT22;41758;51.992;5.890;2022-12-11T06:08:51;11.40;70.40
55828;DHT22;41758;51.992;5.890;2022-12-11T06:11:17;11.40;70.40
55828;DHT22;41758;51.992;5.890;2022-12-11T06:13:42;11.30;70.60
55828;DHT22;41758;51.992;5.890;2022-12-11T06:16:08;11.30;70.70
55828;DHT22;41758;51.992;5.890;2022-12-11T06:18:38;11.40;71.00
55828;DHT22;41758;51.992;5.890;2022-12-11T06:21:14;11.40;71.20
55828;DHT22;41758;51.992;5.890;2022-12-11T06:23:40;11.40;71.10
55828;DHT22;41758;51.992;5.890;2022-12-11T06:26:06;11.40;71.00
55828;DHT22;41758;51.992;5.890;2022-12-11T06:28:32;11.40;70.50
55828;DHT22;41758;51.992;5.890;2022-12-11T06:30:58;11.30;70.20
55828;DHT22;41758;51.992;5.890;2022-12-11T06:33:23;11.30;70.70
55828;DHT22;41758;51.992;5.890;2022-12-11T06:35:50;11.40;70.20
55828;DHT22;41758;51.992;5.890;2022-12-11T06:38:15;11.30;70.10
55828;DHT22;41758;51.992;5.890;2022-12-11T06:40:41;11.40;70.80
55828;DHT22;41758;51.992;5.890;2022-12-11T06:43:07;11.40;71.10
55828;DHT22;41758;51.992;5.890;2022-12-11T06:45:32;11.40;70.60
55828;DHT22;41758;51.992;5.890;2022-12-11T06:47:58;11.40;70.50
55828;DHT22;41758;51.992;5.890;2022-12-11T06:50:24;11.40;70.20
55828;DHT22;41758;51.992;5.890;2022-12-11T06:52:49;11.30;70.40
55828;DHT22;41758;51.992;5.890;2022-12-11T06:55:15;11.40;70.30
55828;DHT22;41758;51.992;5.890;2022-12-11T06:57:41;11.40;70.40
55828;DHT22;41758;51.992;5.890;2022-12-11T07:00:07;11.30;70.40
55828;DHT22;41758;51.992;5.890;2022-12-11T07:02:32;11.30;70.20
55828;DHT22;41758;51.992;5.890;2022-12-11T07:04:58;11.30;69.90
55828;DHT22;41758;51.992;5.890;2022-12-11T07:07:24;11.30;70.00
55828;DHT22;41758;51.992;5.890;2022-12-11T07:09:49;11.20;70.00
55828;DHT22;41758;51.992;5.890;2022-12-11T07:12:15;11.20;69.70
55828;DHT22;41758;51.992;5.890;2022-12-11T07:14:41;11.10;69.70
55828;DHT22;41758;51.992;5.890;2022-12-11T07:17:07;11.10;70.00
55828;DHT22;41758;51.992;5.890;2022-12-11T07:19:32;11.20;70.60
55828;DHT22;41758;51.992;5.890;2022-12-11T07:22:00;11.20;70.70
55828;DHT22;41758;51.992;5.890;2022-12-11T07:24:26;11.20;70.50
55828;DHT22;41758;51.992;5.890;2022-12-11T07:26:51;11.20;70.60
55828;DHT22;41758;51.992;5.890;2022-12-11T07:29:17;11.30;70.40
55828;DHT22;41758;51.992;5.890;2022-12-11T07:31:43;11.20;70.10
55828;DHT22;41758;51.992;5.890;2022-12-11T07:34:10;11.20;70.10
55828;DHT22;41758;51.992;5.890;2022-12-11T07:36:36;11.20;69.80
55828;DHT22;41758;51.992;5.890;2022-12-11T07:39:01;11.10;70.00
55828;DHT22;41758;51.992;5.890;2022-12-11T07:41:27;11.10;70.20
55828;DHT22;41758;51.992;5.890;2022-12-11T07:43:54;11.10;70.50
55828;DHT22;41758;51.992;5.890;2022-12-11T07:46:24;11.20;70.60
55828;DHT22;41758;51.992;5.890;2022-12-11T07:48:49;11.20;70.90
55828;DHT22;41758;51.992;5.890;2022-12-11T07:51:25;11.30;70.60
55828;DHT22;41758;51.992;5.890;2022-12-11T07:53:52;11.30;70.00
55828;DHT22;41758;51.992;5.890;2022-12-11T07:56:18;11.10;69.80
55828;DHT22;41758;51.992;5.890;2022-12-11T07:58:44;11.00;70.00
55828;DHT22;41758;51.992;5.890;2022-12-11T08:01:12;11.00;70.00
55828;DHT22;41758;51.992;5.890;2022-12-11T08:03:38;10.90;69.90
55828;DHT22;41758;51.992;5.890;2022-12-11T08:06:04;10.90;69.90
55828;DHT22;41758;51.992;5.890;2022-12-11T08:08:30;10.90;70.40
55828;DHT22;41758;51.992;5.890;2022-12-11T08:11:03;11.10;71.20
55828;DHT22;41758;51.992;5.890;2022-12-11T08:13:30;11.10;71.10
55828;DHT22;41758;51.992;5.890;2022-12-11T08:15:56;11.10;70.70
55828;DHT22;41758;51.992;5.890;2022-12-11T08:18:21;11.10;70.90
55828;DHT22;41758;51.992;5.890;2022-12-11T08:20:47;11.10;70.50
55828;DHT22;41758;51.992;5.890;2022-12-11T08:23:13;11.00;69.60
55828;DHT22;41758;51.992;5.890;2022-12-11T08:25:38;11.00;69.50
55828;DHT22;41758;51.992;5.890;2022-12-11T08:28:04;11.00;69.50
55828;DHT22;41758;51.992;5.890;2022-12-11T08:30:30;11.00;69.90
55828;DHT22;41758;51.992;5.890;2022-12-11T08:32:56;11.00;69.90
55828;DHT22;41758;51.992;5.890;2022-12-11T08:35:25;11.00;70.80
55828;DHT22;41758;51.992;5.890;2022-12-11T08:37:51;11.10;70.20
55828;DHT22;41758;51.992;5.890;2022-12-11T08:40:20;11.00;70.10
55828;DHT22;41758;51.992;5.890;2022-12-11T08:42:50;11.00;70.10
55828;DHT22;41758;51.992;5.890;2022-12-11T08:45:21;11.00;70.30
55828;DHT22;41758;51.992;5.890;2022-12-11T08:47:57;11.10;71.00
55828;DHT22;41758;51.992;5.890;2022-12-11T08:50:23;11.20;71.10
55828;DHT22;41758;51.992;5.890;2022-12-11T08:52:48;11.20;70.80
55828;DHT22;41758;51.992;5.890;2022-12-11T08:55:14;11.20;70.80
55828;DHT22;41758;51.992;5.890;2022-12-11T08:57:39;11.20;70.50
55828;DHT22;41758;51.992;5.890;2022-12-11T09:00:06;11.10;70.10
55828;DHT22;41758;51.992;5.890;2022-12-11T09:02:33;11.10;70.00
55828;DHT22;41758;51.992;5.890;2022-12-11T09:04:59;11.10;70.40
55828;DHT22;41758;51.992;5.890;2022-12-11T09:07:25;11.10;70.50
55828;DHT22;41758;51.992;5.890;2022-12-11T09:09:53;11.10;70.80
55828;DHT22;41758;51.992;5.890;2022-12-11T09:12:18;11.10;70.60
55828;DHT22;41758;51.992;5.890;2022-12-11T09:14:44;11.10;70.40
55828;DHT22;41758;51.992;5.890;2022-12-11T09:17:10;11.20;70.80
55828;DHT22;41758;51.992;5.890;2022-12-11T09:19:35;11.30;71.30
55828;DHT22;41758;51.992;5.890;2022-12-11T09:22:01;11.30;71.20
55828;DHT22;41758;51.992;5.890;2022-12-11T09:24:26;11.40;71.10
55828;DHT22;41758;51.992;5.890;2022-12-11T09:26:52;11.40;70.80
55828;DHT22;41758;51.992;5.890;2022-12-11T09:29:18;11.40;70.70
55828;DHT22;41758;51.992;5.890;2022-12-11T09:31:44;11.30;70.90
55828;DHT22;41758;51.992;5.890;2022-12-11T09:34:11;11.40;71.40
55828;DHT22;41758;51.992;5.890;2022-12-11T09:36:38;11.40;71.30
55828;DHT22;41758;51.992;5.890;2022-12-11T09:39:06;11.40;71.10
55828;DHT22;41758;51.992;5.890;2022-12-11T09:44:17;11.30;70.80
55828;DHT22;41758;51.992;5.890;2022-12-11T09:46:44;11.30;71.10
55828;DHT22;41758;51.992;5.890;2022-12-11T09:52:02;11.40;70.70
55828;DHT22;41758;51.992;5.890;2022-12-11T09:54:30;11.30;70.50
55828;DHT22;41758;51.992;5.890;2022-12-11T09:57:09;11.30;70.70
55828;DHT22;41758;51.992;5.890;2022-12-11T09:59:56;11.30;70.90
55828;DHT22;41758;51.992;5.890;2022-12-11T10:08:00;11.30;70.80
55828;DHT22;41758;51.992;5.890;2022-12-11T10:10:35;11.30;70.90
55828;DHT22;41758;51.992;5.890;2022-12-11T10:15:36;11.30;70.50
55828;DHT22;41758;51.992;5.890;2022-12-11T10:18:15;11.30;69.90
55828;DHT22;41758;51.992;5.890;2022-12-11T10:20:42;11.30;70.20
55828;DHT22;41758;51.992;5.890;2022-12-11T10:23:18;11.30;70.40
55828;DHT22;41758;51.992;5.890;2022-12-11T10:25:45;11.30;70.70
55828;DHT22;41758;51.992;5.890;2022-12-11T10:28:13;11.30;71.20
55828;DHT22;41758;51.992;5.890;2022-12-11T10:30:45;11.30;71.30
55828;DHT22;41758;51.992;5.890;2022-12-11T10:33:23;11.30;71.40
55828;DHT22;41758;51.992;5.890;2022-12-11T10:35:52;11.40;71.40
55828;DHT22;41758;51.992;5.890;2022-12-11T10:40:52;11.40;71.50
55828;DHT22;41758;51.992;5.890;2022-12-11T10:43:18;11.40;71.40
55828;DHT22;41758;51.992;5.890;2022-12-11T10:45:51;11.50;70.80
55828;DHT22;41758;51.992;5.890;2022-12-11T10:48:16;11.50;70.30
55828;DHT22;41758;51.992;5.890;2022-12-11T10:50:42;11.50;70.40
55828;DHT22;41758;51.992;5.890;2022-12-11T10:53:18;11.40;70.40
55828;DHT22;41758;51.992;5.890;2022-12-11T10:55:44;11.40;70.40
55828;DHT22;41758;51.992;5.890;2022-12-11T10:58:14;11.40;70.40
55828;DHT22;41758;51.992;5.890;2022-12-11T11:00:41;11.30;70.20
55828;DHT22;41758;51.992;5.890;2022-12-11T11:03:17;11.40;70.50
55828;DHT22;41758;51.992;5.890;2022-12-11T11:05:44;11.30;70.70
55828;DHT22;41758;51.992;5.890;2022-12-11T11:08:15;11.30;70.70
55828;DHT22;41758;51.992;5.890;2022-12-11T11:10:52;11.30;70.80
55828;DHT22;41758;51.992;5.890;2022-12-11T11:13:19;11.30;70.90
55828;DHT22;41758;51.992;5.890;2022-12-11T11:15:45;11.30;70.90
55828;DHT22;41758;51.992;5.890;2022-12-11T11:18:14;11.30;71.00
55828;DHT22;41758;51.992;5.890;2022-12-11T11:20:42;11.30;71.10
55828;DHT22;41758;51.992;5.890;2022-12-11T11:23:11;11.40;71.20
55828;DHT22;41758;51.992;5.890;2022-12-11T11:25:38;11.40;71.10
55828;DHT22;41758;51.992;5.890;2022-12-11T11:28:05;11.50;71.00
55828;DHT22;41758;51.992;5.890;2022-12-11T11:33:01;11.50;70.70
55828;DHT22;41758;51.992;5.890;2022-12-11T11:35:28;11.50;70.30
55828;DHT22;41758;51.992;5.890;2022-12-11T11:40:24;11.40;70.30
55828;DHT22;41758;51.992;5.890;2022-12-11T11:43:00;11.40;70.50
55828;DHT22;41758;51.992;5.890;2022-12-11T11:45:33;11.40;70.60
55828;DHT22;41758;51.992;5.890;2022-12-11T11:48:04;11.40;70.90
55828;DHT22;41758;51.992;5.890;2022-12-11T11:50:35;11.30;70.70
55828;DHT22;41758;51.992;5.890;2022-12-11T11:53:44;11.40;70.40
55828;DHT22;41758;51.992;5.890;2022-12-11T11:59:16;11.40;70.00
55828;DHT22;41758;51.992;5.890;2022-12-11T12:01:14;11.30;70.10
55828;DHT22;41758;51.992;5.890;2022-12-11T12:03:40;11.30;70.20
55828;DHT22;41758;51.992;5.890;2022-12-11T12:13:31;11.30;69.40
55828;DHT22;41758;51.992;5.890;2022-12-11T12:16:03;11.30;69.60
55828;DHT22;41758;51.992;5.890;2022-12-11T12:26:13;11.20;70.00
55828;DHT22;41758;51.992;5.890;2022-12-11T12:31:27;11.10;69.60
55828;DHT22;41758;51.992;5.890;2022-12-11T12:44:13;10.70;68.00
55828;DHT22;41758;51.992;5.890;2022-12-11T12:46:46;10.70;68.20
55828;DHT22;41758;51.992;5.890;2022-12-11T12:49:21;10.70;69.60
55828;DHT22;41758;51.992;5.890;2022-12-11T12:52:30;10.70;68.90
55828;DHT22;41758;51.992;5.890;2022-12-11T12:54:58;10.70;69.70
55828;DHT22;41758;51.992;5.890;2022-12-11T12:57:41;10.80;70.10
55828;DHT22;41758;51.992;5.890;2022-12-11T13:00:09;10.80;70.50
55828;DHT22;41758;51.992;5.890;2022-12-11T13:02:37;10.90;71.00
55828;DHT22;41758;51.992;5.890;2022-12-11T13:05:05;10.90;71.00
55828;DHT22;41758;51.992;5.890;2022-12-11T13:07:32;10.90;71.10
55828;DHT22;41758;51.992;5.890;2022-12-11T13:42:50;11.50;70.70
55828;DHT22;41758;51.992;5.890;2022-12-11T13:46:04;11.50;71.00
55828;DHT22;41758;51.992;5.890;2022-12-11T13:48:35;11.50;71.30
55828;DHT22;41758;51.992;5.890;2022-12-11T13:51:15;11.60;71.40
55828;DHT22;41758;51.992;5.890;2022-12-11T13:57:29;11.70;71.20
55828;DHT22;41758;51.992;5.890;2022-12-11T14:07:14;11.80;70.60
55828;DHT22;41758;51.992;5.890;2022-12-11T14:20:40;11.80;70.90
55828;DHT22;41758;51.992;5.890;2022-12-11T16:22:18;11.20;71.10
55828;DHT22;41758;51.992;5.890;2022-12-11T16:39:49;11.30;70.80
55828;DHT22;41758;51.992;5.890;2022-12-11T16:42:15;11.30;70.80
55828;DHT22;41758;51.992;5.890;2022-12-11T16:44:50;11.40;70.90
55828;DHT22;41758;51.992;5.890;2022-12-11T16:47:15;11.40;70.90
55828;DHT22;41758;51.992;5.890;2022-12-11T17:35:27;10.40;70.60
55828;DHT22;41758;51.992;5.890;2022-12-11T17:55:59;9.80;70.90
55828;DHT22;41758;51.992;5.890;2022-12-11T17:58:30;9.80;71.00
55828;DHT22;41758;51.992;5.890;2022-12-11T18:00:57;9.80;71.20
55828;DHT22;41758;51.992;5.890;2022-12-11T18:03:23;9.90;71.40
55828;DHT22;41758;51.992;5.890;2022-12-11T18:05:50;9.90;71.40
55828;DHT22;41758;51.992;5.890;2022-12-11T18:08:26;9.90;71.40
55828;DHT22;41758;51.992;5.890;2022-12-11T18:10:54;10.00;71.40
55828;DHT22;41758;51.992;5.890;2022-12-11T18:13:20;10.10;71.50
55828;DHT22;41758;51.992;5.890;2022-12-11T18:15:46;10.20;71.50
55828;DHT22;41758;51.992;5.890;2022-12-11T18:18:13;10.20;71.30
55828;DHT22;41758;51.992;5.890;2022-12-11T18:20:39;10.20;71.20
55828;DHT22;41758;51.992;5.890;2022-12-11T18:23:05;10.30;71.20
55828;DHT22;41758;51.992;5.890;2022-12-11T18:25:31;10.30;71.10
55828;DHT22;41758;51.992;5.890;2022-12-11T18:27:59;10.30;71.10
55828;DHT22;41758;51.992;5.890;2022-12-11T18:30:25;10.30;70.80
55828;DHT22;41758;51.992;5.890;2022-12-11T18:32:52;10.30;70.70
55828;DHT22;41758;51.992;5.890;2022-12-11T18:35:17;10.30;70.30
55828;DHT22;41758;51.992;5.890;2022-12-11T18:37:43;10.30;70.00
55828;DHT22;41758;51.992;5.890;2022-12-11T18:40:23;10.30;70.00
55828;DHT22;41758;51.992;5.890;2022-12-11T18:42:49;10.30;70.00
55828;DHT22;41758;51.992;5.890;2022-12-11T18:45:15;10.30;70.60
55828;DHT22;41758;51.992;5.890;2022-12-11T18:47:40;10.40;70.30
55828;DHT22;41758;51.992;5.890;2022-12-11T18:50:06;10.40;70.20
55828;DHT22;41758;51.992;5.890;2022-12-11T18:52:33;10.40;70.30
55828;DHT22;41758;51.992;5.890;2022-12-11T18:55:01;10.40;70.40
55828;DHT22;41758;51.992;5.890;2022-12-11T18:57:33;10.40;70.50
55828;DHT22;41758;51.992;5.890;2022-12-11T18:59:59;10.40;70.00
55828;DHT22;41758;51.992;5.890;2022-12-11T19:02:32;10.40;70.10
55828;DHT22;41758;51.992;5.890;2022-12-11T19:04:58;10.40;69.80
55828;DHT22;41758;51.992;5.890;2022-12-11T19:07:24;10.40;69.70
55828;DHT22;41758;51.992;5.890;2022-12-11T19:09:55;10.30;70.00
55828;DHT22;41758;51.992;5.890;2022-12-11T19:12:29;10.30;70.20
55828;DHT22;41758;51.992;5.890;2022-12-11T19:14:55;10.30;70.50
55828;DHT22;41758;51.992;5.890;2022-12-11T19:17:28;10.30;70.70
55828;DHT22;41758;51.992;5.890;2022-12-11T19:19:54;10.40;70.50
55828;DHT22;41758;51.992;5.890;2022-12-11T19:22:22;10.40;70.40
55828;DHT22;41758;51.992;5.890;2022-12-11T19:25:08;10.40;70.60
55828;DHT22;41758;51.992;5.890;2022-12-11T19:34:32;10.60;70.80
55828;DHT22;41758;51.992;5.890;2022-12-11T19:41:03;10.80;70.30
55828;DHT22;41758;51.992;5.890;2022-12-11T19:44:35;10.80;70.10
55828;DHT22;41758;51.992;5.890;2022-12-11T20:01:47;10.80;70.80
55828;DHT22;41758;51.992;5.890;2022-12-11T20:14:56;10.80;70.90
55828;DHT22;41758;51.992;5.890;2022-12-11T20:49:33;10.80;71.00
55828;DHT22;41758;51.992;5.890;2022-12-11T20:52:00;10.80;70.80
55828;DHT22;41758;51.992;5.890;2022-12-11T20:54:26;10.80;70.70
55828;DHT22;41758;51.992;5.890;2022-12-11T20:56:51;10.70;70.60
55828;DHT22;41758;51.992;5.890;2022-12-11T20:59:17;10.80;70.40
55828;DHT22;41758;51.992;5.890;2022-12-11T21:01:42;10.70;70.50
55828;DHT22;41758;51.992;5.890;2022-12-11T21:04:08;10.80;70.60
55828;DHT22;41758;51.992;5.890;2022-12-11T21:06:34;10.70;70.70
55828;DHT22;41758;51.992;5.890;2022-12-11T21:09:02;10.70;70.70
55828;DHT22;41758;51.992;5.890;2022-12-11T21:11:28;10.70;70.70
55828;DHT22;41758;51.992;5.890;2022-12-11T21:13:54;10.70;70.60
55828;DHT22;41758;51.992;5.890;2022-12-11T21:16:19;10.70;70.70
55828;DHT22;41758;51.992;5.890;2022-12-11T21:18:45;10.70;70.70
55828;DHT22;41758;51.992;5.890;2022-12-11T21:21:11;10.70;70.90
55828;DHT22;41758;51.992;5.890;2022-12-11T21:23:37;10.80;71.00
55828;DHT22;41758;51.992;5.890;2022-12-11T21:26:03;10.80;71.00
55828;DHT22;41758;51.992;5.890;2022-12-11T21:28:28;10.80;71.00
55828;DHT22;41758;51.992;5.890;2022-12-11T21:30:57;10.80;70.90
55828;DHT22;41758;51.992;5.890;2022-12-11T21:33:23;10.80;71.00
55828;DHT22;41758;51.992;5.890;2022-12-11T21:35:53;10.90;71.00
55828;DHT22;41758;51.992;5.890;2022-12-11T21:38:18;10.90;71.00
55828;DHT22;41758;51.992;5.890;2022-12-11T21:40:44;10.90;70.90
55828;DHT22;41758;51.992;5.890;2022-12-11T21:43:10;10.90;70.90
55828;DHT22;41758;51.992;5.890;2022-12-11T21:45:35;10.90;70.90
55828;DHT22;41758;51.992;5.890;2022-12-11T21:48:01;10.90;70.80
55828;DHT22;41758;51.992;5.890;2022-12-11T21:50:27;10.90;70.70
55828;DHT22;41758;51.992;5.890;2022-12-11T21:52:52;10.90;70.90
55828;DHT22;41758;51.992;5.890;2022-12-11T21:55:18;11.00;70.90
55828;DHT22;41758;51.992;5.890;2022-12-11T21:57:44;11.00;70.90
55828;DHT22;41758;51.992;5.890;2022-12-11T22:00:09;11.10;71.00
55828;DHT22;41758;51.992;5.890;2022-12-11T22:02:38;11.10;70.90
55828;DHT22;41758;51.992;5.890;2022-12-11T22:05:03;11.10;70.80
55828;DHT22;41758;51.992;5.890;2022-12-11T22:07:29;11.20;70.70
55828;DHT22;41758;51.992;5.890;2022-12-11T22:09:55;11.20;70.60
55828;DHT22;41758;51.992;5.890;2022-12-11T22:12:22;11.20;70.60